createdAt,value
2023-01-17T00:01:35.491Z,350.67
2023-01-17T00:04:54.095Z,371.01
2023-01-17T00:08:15.614Z,388.89
2023-01-17T00:11:21.694Z,417.39
2023-01-17T00:14:31.039Z,398.37
2023-01-17T00:17:36.956Z,382.79
2023-01-17T00:20:55.963Z,406.28
2023-01-17T00:24:14.340Z,410.52
2023-01-17T00:27:18.011Z,387.25
2023-01-17T00:30:24.502Z,409.33
2023-01-17T00:33:29.189Z,411.23
2023-01-17T00:36:32.149Z,412.44
2023-01-17T00:39:35.865Z,411.48
2023-01-17T00:42:38.806Z,411.27
2023-01-17T00:46:02.647Z,401.16
2023-01-17T00:49:22.040Z,391.88
2023-01-17T00:52:40.922Z,397.38
2023-01-17T00:55:59.033Z,405.79
2023-01-17T00:59:17.974Z,408.53
2023-01-17T01:02:40.255Z,449.45
2023-01-17T01:05:59.205Z,428.38
2023-01-17T01:09:17.370Z,393.94
2023-01-17T01:12:36.351Z,322.13
2023-01-17T01:15:54.583Z,311.75
2023-01-17T01:19:16.224Z,248.89
2023-01-17T01:22:34.620Z,265.61
2023-01-17T01:25:53.605Z,276.60
2023-01-17T01:29:11.820Z,270.71
2023-01-17T01:32:30.730Z,282.73
2023-01-17T01:35:42.059Z,282.16
2023-01-17T01:38:50.449Z,301.59
2023-01-17T01:41:56.377Z,266.55
2023-01-17T01:45:02.880Z,235.05
2023-01-17T01:48:26.410Z,217.97
2023-01-17T01:51:44.625Z,199.73
2023-01-17T01:55:00.620Z,157.13
2023-01-17T01:58:16.449Z,135.81
2023-01-17T02:01:22.829Z,134.41
2023-01-17T02:04:32.262Z,122.08
2023-01-17T02:07:53.930Z,110.05
2023-01-17T02:11:00.489Z,117.13
2023-01-17T02:14:06.483Z,123.54
2023-01-17T02:17:33.114Z,132.35
2023-01-17T02:21:09.094Z,134.47
2023-01-17T02:25:05.674Z,137.05
2023-01-17T02:28:45.398Z,124.41
2023-01-17T02:32:05.936Z,111.46
2023-01-17T02:35:25.771Z,105.93
2023-01-17T02:38:47.324Z,103.36
2023-01-17T02:42:03.306Z,105.96
2023-01-17T02:45:11.993Z,99.56
2023-01-17T02:48:31.252Z,95.01
2023-01-17T02:52:06.252Z,103.05
2023-01-17T02:55:34.267Z,112.68
2023-01-17T02:59:17.593Z,119.38
2023-01-17T03:02:43.585Z,123.04
2023-01-17T03:06:03.793Z,120.87
2023-01-17T03:09:12.049Z,118.07
2023-01-17T03:12:18.964Z,118.48
2023-01-17T03:15:25.239Z,113.39
2023-01-17T03:18:32.918Z,194.86
2023-01-17T03:21:41.435Z,191.15
2023-01-17T03:24:48.245Z,115.66
2023-01-17T03:27:54.307Z,144.70
2023-01-17T03:31:00.942Z,147.83
2023-01-17T03:34:07.088Z,165.75
2023-01-17T03:37:16.528Z,122.90
2023-01-17T03:40:22.659Z,86.79
2023-01-17T03:43:29.238Z,107.93
2023-01-17T03:46:36.551Z,129.26
2023-01-17T03:49:43.603Z,150.93
2023-01-17T03:52:52.014Z,135.41
2023-01-17T03:55:58.898Z,142.44
2023-01-17T03:59:05.232Z,140.79
2023-01-17T04:02:12.010Z,125.78
2023-01-17T04:05:18.185Z,113.80
2023-01-17T04:08:28.503Z,110.64
2023-01-17T04:11:34.427Z,111.39
2023-01-17T04:14:41.336Z,112.25
2023-01-17T04:17:47.708Z,111.77
2023-01-17T04:20:56.527Z,114.39
2023-01-17T04:24:04.976Z,123.60
2023-01-17T04:27:14.417Z,121.94
2023-01-17T04:30:20.464Z,124.87
2023-01-17T04:33:27.138Z,168.89
2023-01-17T04:36:33.115Z,226.67
2023-01-17T04:39:42.842Z,211.17
2023-01-17T04:42:49.008Z,184.19
2023-01-17T04:45:58.992Z,168.07
2023-01-17T04:49:04.968Z,133.33
2023-01-17T04:52:11.900Z,142.65
2023-01-17T04:55:20.742Z,147.49
2023-01-17T04:58:28.069Z,152.80
2023-01-17T05:01:34.599Z,146.85
2023-01-17T05:04:42.011Z,132.26
2023-01-17T05:07:47.890Z,134.48
2023-01-17T05:10:57.395Z,140.00
2023-01-17T05:14:03.324Z,153.05
2023-01-17T05:17:11.386Z,173.40
2023-01-17T05:20:17.431Z,195.59
2023-01-17T05:23:25.375Z,178.52
2023-01-17T05:26:33.819Z,169.51
2023-01-17T05:29:40.756Z,158.14
2023-01-17T05:32:52.327Z,158.16
2023-01-17T05:35:59.128Z,144.53
2023-01-17T05:39:05.013Z,145.52
2023-01-17T05:42:14.297Z,150.02
2023-01-17T05:45:22.759Z,178.36
2023-01-17T05:48:29.342Z,178.00
2023-01-17T05:51:37.905Z,179.11
2023-01-17T05:54:44.475Z,194.03
2023-01-17T05:57:53.177Z,191.94
2023-01-17T06:00:59.904Z,217.09
2023-01-17T06:04:05.801Z,947.28
2023-01-17T06:07:12.398Z,652.02
2023-01-17T06:10:21.210Z,359.25
2023-01-17T06:13:30.395Z,202.72
2023-01-17T06:16:36.395Z,174.02
2023-01-17T06:19:43.001Z,177.90
2023-01-17T06:22:49.180Z,218.72
2023-01-17T06:25:56.424Z,310.09
2023-01-17T06:29:05.021Z,382.19
2023-01-17T06:32:13.421Z,357.72
2023-01-17T06:35:19.827Z,342.12
2023-01-17T06:38:27.449Z,321.19
2023-01-17T06:41:33.655Z,336.29
2023-01-17T06:44:43.194Z,390.67
2023-01-17T06:47:49.376Z,505.36
2023-01-17T06:50:56.162Z,473.20
2023-01-17T06:54:02.230Z,451.39
2023-01-17T06:57:08.722Z,364.24
2023-01-17T07:00:19.371Z,382.98
2023-01-17T07:03:29.816Z,393.88
2023-01-17T07:06:35.715Z,355.61
2023-01-17T07:09:55.271Z,345.13
2023-01-17T07:13:04.309Z,458.70
2023-01-17T07:16:13.879Z,443.77
2023-01-17T07:19:19.851Z,364.75
2023-01-17T07:22:26.919Z,313.10
2023-01-17T07:29:31.334Z,229.53
2023-01-17T07:36:32.815Z,162.70
2023-01-17T07:43:29.790Z,172.14
2023-01-17T07:46:36.683Z,206.10
2023-01-17T07:49:43.178Z,229.12
2023-01-17T07:52:56.579Z,227.42
2023-01-17T07:56:07.638Z,216.68
2023-01-17T07:59:14.791Z,203.20
2023-01-17T08:02:25.222Z,181.93
2023-01-17T08:09:37.358Z,171.02
2023-01-17T08:12:44.647Z,167.81
2023-01-17T08:15:52.322Z,155.19
2023-01-17T08:19:00.327Z,163.53
2023-01-17T08:22:08.732Z,173.47
2023-01-17T08:25:18.823Z,195.81
2023-01-17T08:28:31.211Z,207.31
2023-01-17T08:31:39.787Z,209.01
2023-01-17T08:34:46.810Z,229.56
2023-01-17T08:38:00.115Z,222.32
2023-01-17T08:41:09.204Z,221.03
2023-01-17T08:44:20.461Z,195.82
2023-01-17T08:47:28.190Z,184.07
2023-01-17T08:50:34.959Z,171.93
2023-01-17T08:53:42.806Z,170.22
2023-01-17T08:56:52.998Z,181.58
2023-01-17T08:59:59.306Z,171.20
2023-01-17T09:03:13.269Z,183.22
2023-01-17T09:06:20.742Z,183.42
2023-01-17T09:09:27.537Z,176.80
2023-01-17T09:12:39.093Z,185.77
2023-01-17T09:15:45.724Z,196.02
2023-01-17T09:18:51.612Z,167.41
2023-01-17T09:21:58.256Z,143.62
2023-01-17T09:25:04.172Z,125.60
2023-01-17T09:28:13.714Z,130.67
2023-01-17T09:31:21.518Z,133.42
2023-01-17T09:34:28.110Z,164.97
2023-01-17T09:37:33.919Z,160.62
2023-01-17T09:40:47.332Z,164.71
2023-01-17T09:44:05.938Z,162.22
2023-01-17T09:47:31.443Z,161.75
2023-01-17T09:50:49.506Z,154.18
2023-01-17T09:53:58.393Z,158.18
2023-01-17T09:57:18.524Z,176.00
2023-01-17T10:00:55.494Z,173.57
2023-01-17T10:04:29.280Z,152.68
2023-01-17T10:07:57.516Z,155.78
2023-01-17T10:11:34.060Z,142.99
2023-01-17T10:15:03.162Z,133.09
2023-01-17T10:18:57.211Z,129.74
2023-01-17T10:22:36.441Z,113.94
2023-01-17T10:25:50.722Z,111.06
2023-01-17T10:29:05.529Z,115.67
2023-01-17T10:32:17.612Z,109.28
2023-01-17T10:35:36.274Z,113.09
2023-01-17T10:38:44.223Z,108.49
2023-01-17T10:41:58.970Z,110.13
2023-01-17T10:45:18.653Z,103.89
2023-01-17T10:48:43.056Z,106.93
2023-01-17T10:52:08.649Z,105.84
2023-01-17T10:55:40.278Z,100.86
2023-01-17T10:58:48.304Z,101.84
2023-01-17T11:01:55.128Z,91.77
2023-01-17T11:05:17.942Z,96.32
2023-01-17T11:08:27.112Z,93.11
2023-01-17T11:11:38.225Z,96.76
2023-01-17T11:15:02.800Z,100.01
2023-01-17T11:18:19.119Z,82.49
2023-01-17T11:21:28.521Z,78.27
2023-01-17T11:24:45.426Z,82.23
2023-01-17T11:28:04.398Z,71.32
2023-01-17T11:31:29.839Z,71.42
2023-01-17T11:34:36.679Z,82.13
2023-01-17T11:37:49.956Z,84.07
2023-01-17T11:41:19.262Z,78.57
2023-01-17T11:44:29.703Z,69.22
2023-01-17T11:47:36.385Z,78.51
2023-01-17T11:50:47.371Z,73.32
2023-01-17T11:53:55.972Z,68.18
2023-01-17T11:57:05.815Z,65.46
2023-01-17T12:00:27.866Z,69.15
2023-01-17T12:04:02.656Z,61.96
2023-01-17T12:07:27.580Z,59.63
2023-01-17T12:10:49.479Z,62.88
2023-01-17T12:14:19.526Z,61.34
2023-01-17T12:17:57.441Z,59.70
2023-01-17T12:21:22.996Z,60.92
2023-01-17T12:25:04.182Z,63.60
2023-01-17T12:28:52.358Z,57.18
2023-01-17T12:32:30.505Z,52.68
2023-01-17T12:35:48.331Z,55.96
2023-01-17T12:38:56.723Z,82.43
2023-01-17T12:42:15.986Z,58.99
2023-01-17T12:45:32.687Z,59.34
2023-01-17T12:48:42.305Z,66.04
2023-01-17T12:51:55.987Z,57.59
2023-01-17T12:55:13.833Z,300.03
2023-01-17T12:58:35.047Z,51.08
2023-01-17T13:01:43.395Z,51.52
2023-01-17T13:05:03.179Z,49.30
2023-01-17T13:08:28.198Z,56.67
2023-01-17T13:11:46.728Z,62.78
2023-01-17T13:14:53.871Z,57.95
2023-01-17T13:18:13.491Z,56.28
2023-01-17T13:21:35.460Z,59.69
2023-01-17T13:24:55.560Z,76.02
2023-01-17T13:28:33.350Z,55.48
2023-01-17T13:31:51.839Z,59.05
2023-01-17T13:35:22.211Z,72.11
2023-01-17T13:39:16.119Z,52.33
2023-01-17T13:42:43.690Z,48.97
2023-01-17T13:45:57.793Z,66.50
2023-01-17T13:49:36.349Z,57.65
2023-01-17T13:52:42.329Z,58.83
2023-01-17T13:55:55.811Z,56.67
2023-01-17T13:59:36.081Z,60.43
2023-01-17T14:02:42.828Z,152.92
2023-01-17T14:06:00.137Z,3164.09
2023-01-17T14:09:19.888Z,976.83
2023-01-17T14:12:36.231Z,2245.60
2023-01-17T14:15:53.901Z,603.47
2023-01-17T14:19:00.293Z,285.54
2023-01-17T14:22:28.496Z,460.78
2023-01-17T14:25:44.014Z,286.16
2023-01-17T14:28:55.430Z,119.16
2023-01-17T14:32:11.829Z,70.38
2023-01-17T14:35:26.610Z,103.65
2023-01-17T14:38:43.928Z,93.94
2023-01-17T14:41:50.736Z,155.18
2023-01-17T14:45:07.181Z,78.92
2023-01-17T14:48:21.739Z,265.35
2023-01-17T14:51:28.400Z,147.69
2023-01-17T14:54:37.044Z,121.71
2023-01-17T14:57:45.980Z,226.72
2023-01-17T15:01:01.839Z,131.46
2023-01-17T15:04:07.940Z,140.54
2023-01-17T15:07:20.586Z,180.84
2023-01-17T15:10:33.286Z,154.89
2023-01-17T15:13:45.977Z,173.82
2023-01-17T15:16:54.496Z,164.53
2023-01-17T15:20:11.419Z,214.29
2023-01-17T15:23:23.235Z,841.53
2023-01-17T15:26:36.113Z,1887.25
2023-01-17T15:29:44.803Z,1127.16
2023-01-17T15:32:55.055Z,754.85
2023-01-17T15:36:07.176Z,479.81
2023-01-17T15:39:27.102Z,663.37
2023-01-17T15:42:37.164Z,392.37
2023-01-17T15:45:44.079Z,283.26
2023-01-17T15:48:53.432Z,483.36
2023-01-17T15:52:18.442Z,176.75
2023-01-17T15:55:29.004Z,328.26
2023-01-17T15:58:35.567Z,394.50
2023-01-17T16:01:41.589Z,278.19
2023-01-17T16:04:50.860Z,259.08
2023-01-17T16:08:00.366Z,250.97
2023-01-17T16:11:09.589Z,325.78
2023-01-17T16:14:15.336Z,418.12
2023-01-17T16:17:22.404Z,492.76
2023-01-17T16:20:39.865Z,1528.14
2023-01-17T16:23:46.465Z,317.73
2023-01-17T16:26:52.287Z,243.45
2023-01-17T16:29:59.462Z,308.19
2023-01-17T16:33:07.599Z,338.16
2023-01-17T16:36:20.951Z,204.40
2023-01-17T16:39:27.481Z,513.91
2023-01-17T16:42:34.374Z,872.44
2023-01-17T16:45:45.208Z,524.27
2023-01-17T16:48:51.991Z,516.08
2023-01-17T16:52:00.418Z,943.77
2023-01-17T16:55:08.291Z,380.43
2023-01-17T16:58:15.429Z,776.19
2023-01-17T17:05:14.194Z,1149.00
2023-01-17T17:08:23.359Z,1418.16
2023-01-17T17:15:21.731Z,554.67
2023-01-17T17:18:28.456Z,661.57
2023-01-17T17:21:39.753Z,1064.02
2023-01-17T17:28:55.502Z,1285.81
2023-01-17T17:32:02.040Z,995.04
2023-01-17T17:35:20.405Z,772.21
2023-01-17T17:46:14.009Z,929.67
2023-01-17T17:49:23.096Z,768.11
2023-01-17T17:52:32.481Z,767.08
2023-01-17T17:55:51.987Z,751.92
2023-01-17T17:58:59.578Z,742.31
2023-01-17T18:02:11.256Z,686.55
2023-01-17T18:29:55.938Z,406.43
2023-01-17T18:33:02.560Z,473.55
2023-01-17T18:36:10.349Z,623.91
2023-01-17T18:39:20.551Z,445.97
2023-01-17T18:42:27.628Z,416.83
2023-01-17T18:45:36.993Z,417.24
2023-01-17T18:48:43.881Z,447.17
2023-01-17T18:51:51.986Z,456.45
2023-01-17T18:54:58.126Z,512.99
2023-01-17T18:58:06.009Z,523.85
2023-01-17T19:01:19.993Z,517.66
2023-01-17T19:04:28.578Z,681.67
2023-01-17T19:07:34.527Z,505.46
2023-01-17T19:10:41.258Z,568.15
2023-01-17T19:13:50.451Z,530.31
2023-01-17T19:17:01.518Z,489.80
2023-01-17T19:20:09.154Z,448.77
2023-01-17T19:23:17.153Z,479.89
2023-01-17T19:26:25.223Z,481.18
2023-01-17T19:29:31.977Z,495.50
2023-01-17T19:32:40.414Z,573.62
2023-01-17T19:35:47.278Z,706.08
2023-01-17T19:39:05.585Z,700.51
2023-01-17T19:42:15.691Z,577.37
2023-01-17T19:45:21.894Z,678.93
2023-01-17T19:48:31.847Z,707.88
2023-01-17T19:51:39.450Z,772.94
2023-01-17T19:54:46.088Z,813.84
2023-01-17T19:57:52.084Z,747.36
2023-01-17T20:01:09.968Z,760.49
2023-01-17T20:04:19.441Z,883.90
2023-01-17T20:07:26.415Z,911.36
2023-01-17T20:10:32.688Z,754.03
2023-01-17T20:13:40.347Z,713.12
2023-01-17T20:16:48.844Z,669.80
2023-01-17T20:19:59.361Z,709.25
2023-01-17T20:23:06.497Z,463.10
2023-01-17T20:26:17.733Z,405.01
2023-01-17T20:29:26.005Z,331.63
2023-01-17T20:32:32.703Z,349.92
2023-01-17T20:35:41.124Z,432.02
2023-01-17T20:38:50.001Z,624.67
2023-01-17T20:41:56.141Z,652.27
2023-01-17T20:45:03.275Z,349.21
2023-01-17T20:48:09.606Z,312.81
2023-01-17T20:51:20.465Z,368.31
2023-01-17T20:54:26.807Z,379.31
2023-01-17T20:57:34.561Z,378.56
2023-01-17T21:00:40.535Z,384.14
2023-01-17T21:03:48.046Z,371.72
2023-01-17T21:06:57.650Z,360.65
2023-01-17T21:10:04.283Z,581.66
2023-01-17T21:13:10.201Z,642.23
2023-01-17T21:16:20.493Z,574.45
2023-01-17T21:19:26.457Z,458.23
2023-01-17T21:22:35.747Z,413.22
2023-01-17T21:25:43.460Z,446.65
2023-01-17T21:28:52.585Z,654.17
2023-01-17T21:31:58.903Z,774.71
2023-01-17T21:35:05.558Z,621.90
2023-01-17T21:38:14.038Z,532.23
2023-01-17T21:41:21.393Z,578.89
2023-01-17T21:44:27.580Z,624.64
2023-01-17T21:47:35.599Z,741.70
2023-01-17T21:50:42.143Z,713.12
2023-01-17T21:53:51.799Z,649.30
2023-01-17T21:57:21.723Z,611.32
2023-01-17T22:00:28.305Z,574.23
2023-01-17T22:03:34.244Z,622.90
2023-01-17T22:06:41.254Z,637.42
2023-01-17T22:09:49.638Z,565.93
2023-01-17T22:12:56.598Z,582.02
2023-01-17T22:16:05.499Z,500.37
2023-01-17T22:19:12.283Z,532.75
2023-01-17T22:22:18.155Z,545.78
2023-01-17T22:25:27.475Z,564.84
2023-01-17T22:28:34.656Z,579.77
2023-01-17T22:31:41.438Z,607.49
2023-01-17T22:34:47.294Z,637.11
2023-01-17T22:37:56.718Z,664.26
2023-01-17T22:41:13.218Z,716.43
2023-01-17T22:44:19.756Z,670.82
2023-01-17T22:47:25.674Z,621.06
2023-01-17T22:50:32.254Z,623.00
2023-01-17T22:53:42.347Z,624.44
2023-01-17T22:56:51.671Z,600.55
2023-01-17T22:59:58.231Z,549.65
2023-01-17T23:03:06.467Z,527.94
2023-01-17T23:06:16.876Z,512.51
2023-01-17T23:09:24.322Z,489.25
2023-01-17T23:12:32.788Z,516.72
2023-01-17T23:15:53.527Z,544.08
2023-01-17T23:19:11.724Z,540.12
2023-01-17T23:22:24.300Z,559.41
2023-01-17T23:25:30.082Z,580.04
2023-01-17T23:28:36.717Z,608.24
2023-01-17T23:31:43.755Z,610.83
2023-01-17T23:34:50.683Z,596.43
2023-01-17T23:38:08.982Z,600.48
2023-01-17T23:41:27.977Z,574.80
2023-01-17T23:44:36.404Z,565.52
2023-01-17T23:47:42.994Z,562.51
2023-01-17T23:50:51.378Z,534.77
2023-01-17T23:54:05.496Z,520.08
2023-01-17T23:57:11.606Z,533.62
